sensor_id;sensor_type;location;lat;lon;timestamp;temperature;humidity
12568;DHT22;6349;50.904;6.136;2023-01-15T00:01:25;7.20;99.90
12568;DHT22;6349;50.904;6.136;2023-01-15T00:03:28;7.10;99.90
12568;DHT22;6349;50.904;6.136;2023-01-15T00:05:29;7.10;99.90
12568;DHT22;6349;50.904;6.136;2023-01-15T00:07:31;7.10;99.90
12568;DHT22;6349;50.904;6.136;2023-01-15T00:09:33;7.10;99.90
12568;DHT22;6349;50.904;6.136;2023-01-15T00:11:34;7.00;99.90
12568;DHT22;6349;50.904;6.136;2023-01-15T00:13:36;7.00;99.90
12568;DHT22;6349;50.904;6.136;2023-01-15T00:15:38;7.00;99.90
12568;DHT22;6349;50.904;6.136;2023-01-15T00:17:39;7.00;99.90
12568;DHT22;6349;50.904;6.136;2023-01-15T00:19:41;7.00;99.90
12568;DHT22;6349;50.904;6.136;2023-01-15T00:21:43;6.90;99.90
12568;DHT22;6349;50.904;6.136;2023-01-15T00:23:44;7.10;99.90
12568;DHT22;6349;50.904;6.136;2023-01-15T00:26:09;6.90;99.90
12568;DHT22;6349;50.904;6.136;2023-01-15T00:28:32;7.00;99.90
12568;DHT22;6349;50.904;6.136;2023-01-15T00:30:32;6.90;99.90
12568;DHT22;6349;50.904;6.136;2023-01-15T00:32:33;7.00;99.90
12568;DHT22;6349;50.904;6.136;2023-01-15T00:34:34;7.00;99.90
12568;DHT22;6349;50.904;6.136;2023-01-15T00:36:36;7.00;99.90
12568;DHT22;6349;50.904;6.136;2023-01-15T00:38:37;7.00;99.90
12568;DHT22;6349;50.904;6.136;2023-01-15T00:40:38;6.90;99.90
12568;DHT22;6349;50.904;6.136;2023-01-15T00:42:40;6.90;99.90
12568;DHT22;6349;50.904;6.136;2023-01-15T00:44:42;6.90;99.90
12568;DHT22;6349;50.904;6.136;2023-01-15T00:46:42;6.90;99.90
12568;DHT22;6349;50.904;6.136;2023-01-15T00:48:43;6.90;99.90
12568;DHT22;6349;50.904;6.136;2023-01-15T00:50:44;6.80;99.90
12568;DHT22;6349;50.904;6.136;2023-01-15T00:52:44;6.80;99.90
12568;DHT22;6349;50.904;6.136;2023-01-15T00:54:46;6.80;99.90
12568;DHT22;6349;50.904;6.136;2023-01-15T00:56:47;6.80;99.90
12568;DHT22;6349;50.904;6.136;2023-01-15T00:58:49;6.70;99.90
12568;DHT22;6349;50.904;6.136;2023-01-15T01:00:53;6.80;99.90
12568;DHT22;6349;50.904;6.136;2023-01-15T01:02:56;6.80;99.90
12568;DHT22;6349;50.904;6.136;2023-01-15T01:04:58;6.80;99.90
12568;DHT22;6349;50.904;6.136;2023-01-15T01:07:00;6.80;99.90
12568;DHT22;6349;50.904;6.136;2023-01-15T01:09:00;6.70;99.90
12568;DHT22;6349;50.904;6.136;2023-01-15T01:11:06;6.70;99.90
12568;DHT22;6349;50.904;6.136;2023-01-15T01:13:06;6.70;99.90
12568;DHT22;6349;50.904;6.136;2023-01-15T01:15:08;6.80;99.90
12568;DHT22;6349;50.904;6.136;2023-01-15T01:17:12;6.80;99.90
12568;DHT22;6349;50.904;6.136;2023-01-15T01:19:16;6.80;99.90
12568;DHT22;6349;50.904;6.136;2023-01-15T01:21:18;6.90;99.90
12568;DHT22;6349;50.904;6.136;2023-01-15T01:23:23;6.90;99.90
12568;DHT22;6349;50.904;6.136;2023-01-15T01:25:23;6.90;99.90
12568;DHT22;6349;50.904;6.136;2023-01-15T01:27:24;6.90;99.90
12568;DHT22;6349;50.904;6.136;2023-01-15T01:29:26;6.90;99.90
12568;DHT22;6349;50.904;6.136;2023-01-15T01:31:27;6.90;99.90
12568;DHT22;6349;50.904;6.136;2023-01-15T01:33:28;6.90;99.90
12568;DHT22;6349;50.904;6.136;2023-01-15T01:35:29;6.90;99.90
12568;DHT22;6349;50.904;6.136;2023-01-15T01:37:31;6.90;99.90
12568;DHT22;6349;50.904;6.136;2023-01-15T01:39:31;7.00;99.90
12568;DHT22;6349;50.904;6.136;2023-01-15T01:41:33;7.00;99.90
12568;DHT22;6349;50.904;6.136;2023-01-15T01:44:06;7.00;99.90
12568;DHT22;6349;50.904;6.136;2023-01-15T01:46:08;6.90;99.90
12568;DHT22;6349;50.904;6.136;2023-01-15T01:48:08;6.90;99.90
12568;DHT22;6349;50.904;6.136;2023-01-15T01:50:11;6.90;99.90
12568;DHT22;6349;50.904;6.136;2023-01-15T01:52:15;6.90;99.90
12568;DHT22;6349;50.904;6.136;2023-01-15T01:54:20;6.90;99.90
12568;DHT22;6349;50.904;6.136;2023-01-15T01:56:23;6.90;99.90
12568;DHT22;6349;50.904;6.136;2023-01-15T01:58:27;6.90;99.90
12568;DHT22;6349;50.904;6.136;2023-01-15T02:00:32;6.90;99.90
12568;DHT22;6349;50.904;6.136;2023-01-15T02:02:34;6.90;99.90
12568;DHT22;6349;50.904;6.136;2023-01-15T02:04:35;6.90;99.90
12568;DHT22;6349;50.904;6.136;2023-01-15T02:06:37;6.90;99.90
12568;DHT22;6349;50.904;6.136;2023-01-15T02:08:40;6.90;99.90
12568;DHT22;6349;50.904;6.136;2023-01-15T02:10:40;6.90;99.90
12568;DHT22;6349;50.904;6.136;2023-01-15T02:12:47;6.90;99.90
12568;DHT22;6349;50.904;6.136;2023-01-15T02:15:13;6.90;99.90
12568;DHT22;6349;50.904;6.136;2023-01-15T02:17:18;6.90;99.90
12568;DHT22;6349;50.904;6.136;2023-01-15T02:22:09;6.90;99.90
12568;DHT22;6349;50.904;6.136;2023-01-15T02:24:31;6.90;99.90
12568;DHT22;6349;50.904;6.136;2023-01-15T02:27:04;6.80;99.90
12568;DHT22;6349;50.904;6.136;2023-01-15T02:29:11;6.90;99.90
12568;DHT22;6349;50.904;6.136;2023-01-15T02:31:20;6.80;99.90
12568;DHT22;6349;50.904;6.136;2023-01-15T02:33:27;6.90;99.90
12568;DHT22;6349;50.904;6.136;2023-01-15T02:35:42;6.90;99.90
12568;DHT22;6349;50.904;6.136;2023-01-15T02:37:47;6.90;99.90
12568;DHT22;6349;50.904;6.136;2023-01-15T02:39:49;6.90;99.90
12568;DHT22;6349;50.904;6.136;2023-01-15T02:41:53;6.90;99.90
12568;DHT22;6349;50.904;6.136;2023-01-15T02:43:56;6.90;99.90
12568;DHT22;6349;50.904;6.136;2023-01-15T02:45:59;6.80;99.90
12568;DHT22;6349;50.904;6.136;2023-01-15T02:48:05;6.90;99.90
12568;DHT22;6349;50.904;6.136;2023-01-15T02:50:10;6.90;99.90
12568;DHT22;6349;50.904;6.136;2023-01-15T02:52:16;6.80;99.90
12568;DHT22;6349;50.904;6.136;2023-01-15T02:54:19;6.90;99.90
12568;DHT22;6349;50.904;6.136;2023-01-15T02:56:24;6.90;99.90
12568;DHT22;6349;50.904;6.136;2023-01-15T02:58:30;6.90;99.90
12568;DHT22;6349;50.904;6.136;2023-01-15T03:00:36;6.80;99.90
12568;DHT22;6349;50.904;6.136;2023-01-15T03:02:43;6.80;99.90
12568;DHT22;6349;50.904;6.136;2023-01-15T03:04:59;6.70;99.90
12568;DHT22;6349;50.904;6.136;2023-01-15T03:07:23;6.80;99.90
12568;DHT22;6349;50.904;6.136;2023-01-15T03:09:26;6.80;99.90
12568;DHT22;6349;50.904;6.136;2023-01-15T03:11:27;6.80;99.90
12568;DHT22;6349;50.904;6.136;2023-01-15T03:14:08;6.90;99.90
12568;DHT22;6349;50.904;6.136;2023-01-15T03:16:01;6.90;99.90
12568;DHT22;6349;50.904;6.136;2023-01-15T03:18:24;6.80;99.90
12568;DHT22;6349;50.904;6.136;2023-01-15T03:20:28;6.80;99.90
12568;DHT22;6349;50.904;6.136;2023-01-15T03:22:32;6.80;99.90
12568;DHT22;6349;50.904;6.136;2023-01-15T03:24:47;6.80;99.90
12568;DHT22;6349;50.904;6.136;2023-01-15T03:26:49;6.80;99.90
12568;DHT22;6349;50.904;6.136;2023-01-15T03:28:51;6.80;99.90
12568;DHT22;6349;50.904;6.136;2023-01-15T03:30:52;6.80;99.90
12568;DHT22;6349;50.904;6.136;2023-01-15T03:32:53;6.80;99.90
12568;DHT22;6349;50.904;6.136;2023-01-15T03:34:55;6.70;99.90
12568;DHT22;6349;50.904;6.136;2023-01-15T03:36:56;6.70;99.90
12568;DHT22;6349;50.904;6.136;2023-01-15T03:38:57;6.70;99.90
12568;DHT22;6349;50.904;6.136;2023-01-15T03:43:46;6.70;99.90
12568;DHT22;6349;50.904;6.136;2023-01-15T03:45:52;6.80;99.90
12568;DHT22;6349;50.904;6.136;2023-01-15T03:48:11;6.70;99.90
12568;DHT22;6349;50.904;6.136;2023-01-15T03:50:36;6.70;99.90
12568;DHT22;6349;50.904;6.136;2023-01-15T03:52:47;6.70;99.90
12568;DHT22;6349;50.904;6.136;2023-01-15T03:54:57;6.70;99.90
12568;DHT22;6349;50.904;6.136;2023-01-15T03:57:14;6.70;99.90
12568;DHT22;6349;50.904;6.136;2023-01-15T03:59:22;6.70;99.90
12568;DHT22;6349;50.904;6.136;2023-01-15T04:01:29;6.70;99.90
12568;DHT22;6349;50.904;6.136;2023-01-15T04:03:33;6.70;99.90
12568;DHT22;6349;50.904;6.136;2023-01-15T04:05:36;6.70;99.90
12568;DHT22;6349;50.904;6.136;2023-01-15T04:07:38;6.70;99.90
12568;DHT22;6349;50.904;6.136;2023-01-15T04:09:39;6.70;99.90
12568;DHT22;6349;50.904;6.136;2023-01-15T04:11:40;6.70;99.90
12568;DHT22;6349;50.904;6.136;2023-01-15T04:13:42;6.80;99.90
12568;DHT22;6349;50.904;6.136;2023-01-15T04:15:43;6.70;99.90
12568;DHT22;6349;50.904;6.136;2023-01-15T04:17:43;6.70;99.90
12568;DHT22;6349;50.904;6.136;2023-01-15T04:19:47;6.70;99.90
12568;DHT22;6349;50.904;6.136;2023-01-15T04:21:48;6.70;99.90
12568;DHT22;6349;50.904;6.136;2023-01-15T04:23:49;6.70;99.90
12568;DHT22;6349;50.904;6.136;2023-01-15T04:25:50;6.70;99.90
12568;DHT22;6349;50.904;6.136;2023-01-15T04:27:53;6.70;99.90
12568;DHT22;6349;50.904;6.136;2023-01-15T04:29:54;6.70;99.90
12568;DHT22;6349;50.904;6.136;2023-01-15T04:31:55;6.70;99.90
12568;DHT22;6349;50.904;6.136;2023-01-15T04:33:57;6.80;99.90
12568;DHT22;6349;50.904;6.136;2023-01-15T04:35:59;6.70;99.90
12568;DHT22;6349;50.904;6.136;2023-01-15T04:38:00;6.70;99.90
12568;DHT22;6349;50.904;6.136;2023-01-15T04:40:01;6.70;99.90
12568;DHT22;6349;50.904;6.136;2023-01-15T04:42:02;6.70;99.90
12568;DHT22;6349;50.904;6.136;2023-01-15T04:44:23;6.60;99.90
12568;DHT22;6349;50.904;6.136;2023-01-15T04:46:26;6.60;99.90
12568;DHT22;6349;50.904;6.136;2023-01-15T04:48:27;6.50;99.90
12568;DHT22;6349;50.904;6.136;2023-01-15T04:50:28;6.70;99.90
12568;DHT22;6349;50.904;6.136;2023-01-15T04:52:28;6.60;99.90
12568;DHT22;6349;50.904;6.136;2023-01-15T04:54:29;6.60;99.90
12568;DHT22;6349;50.904;6.136;2023-01-15T04:56:30;6.60;99.90
12568;DHT22;6349;50.904;6.136;2023-01-15T04:58:32;6.70;99.90
12568;DHT22;6349;50.904;6.136;2023-01-15T05:00:33;6.70;99.90
12568;DHT22;6349;50.904;6.136;2023-01-15T05:02:34;6.70;99.90
12568;DHT22;6349;50.904;6.136;2023-01-15T05:04:34;6.60;99.90
12568;DHT22;6349;50.904;6.136;2023-01-15T05:06:35;6.60;99.90
12568;DHT22;6349;50.904;6.136;2023-01-15T05:08:36;6.60;99.90
12568;DHT22;6349;50.904;6.136;2023-01-15T05:10:37;6.60;99.90
12568;DHT22;6349;50.904;6.136;2023-01-15T05:12:38;6.60;99.90
12568;DHT22;6349;50.904;6.136;2023-01-15T05:14:38;6.60;99.90
12568;DHT22;6349;50.904;6.136;2023-01-15T05:16:39;6.60;99.90
12568;DHT22;6349;50.904;6.136;2023-01-15T05:18:41;6.50;99.90
12568;DHT22;6349;50.904;6.136;2023-01-15T05:20:42;6.60;99.90
12568;DHT22;6349;50.904;6.136;2023-01-15T05:22:43;6.50;99.90
12568;DHT22;6349;50.904;6.136;2023-01-15T05:24:43;6.50;99.90
12568;DHT22;6349;50.904;6.136;2023-01-15T05:26:45;6.60;99.90
12568;DHT22;6349;50.904;6.136;2023-01-15T05:28:47;6.50;99.90
12568;DHT22;6349;50.904;6.136;2023-01-15T05:30:48;6.50;99.90
12568;DHT22;6349;50.904;6.136;2023-01-15T05:32:48;6.40;99.90
12568;DHT22;6349;50.904;6.136;2023-01-15T05:34:49;6.50;99.90
12568;DHT22;6349;50.904;6.136;2023-01-15T05:36:50;6.50;99.90
12568;DHT22;6349;50.904;6.136;2023-01-15T05:38:53;6.50;99.90
12568;DHT22;6349;50.904;6.136;2023-01-15T05:40:54;6.50;99.90
12568;DHT22;6349;50.904;6.136;2023-01-15T05:42:55;6.50;99.90
12568;DHT22;6349;50.904;6.136;2023-01-15T05:44:56;6.50;99.90
12568;DHT22;6349;50.904;6.136;2023-01-15T05:46:59;6.50;99.90
12568;DHT22;6349;50.904;6.136;2023-01-15T05:49:05;6.50;99.90
12568;DHT22;6349;50.904;6.136;2023-01-15T05:51:06;6.50;99.90
12568;DHT22;6349;50.904;6.136;2023-01-15T05:53:07;6.50;99.90
12568;DHT22;6349;50.904;6.136;2023-01-15T05:55:08;6.50;99.90
12568;DHT22;6349;50.904;6.136;2023-01-15T05:57:11;6.50;99.90
12568;DHT22;6349;50.904;6.136;2023-01-15T05:59:14;6.50;99.90
12568;DHT22;6349;50.904;6.136;2023-01-15T06:01:15;6.50;99.90
12568;DHT22;6349;50.904;6.136;2023-01-15T06:03:15;6.50;99.90
12568;DHT22;6349;50.904;6.136;2023-01-15T06:05:16;6.50;99.90
12568;DHT22;6349;50.904;6.136;2023-01-15T06:07:19;6.50;99.90
12568;DHT22;6349;50.904;6.136;2023-01-15T06:09:20;6.50;99.90
12568;DHT22;6349;50.904;6.136;2023-01-15T06:11:22;6.50;99.90
12568;DHT22;6349;50.904;6.136;2023-01-15T06:13:23;6.50;99.90
12568;DHT22;6349;50.904;6.136;2023-01-15T06:15:24;6.50;99.90
12568;DHT22;6349;50.904;6.136;2023-01-15T06:17:24;6.50;99.90
12568;DHT22;6349;50.904;6.136;2023-01-15T06:19:27;6.50;99.90
12568;DHT22;6349;50.904;6.136;2023-01-15T06:21:27;6.50;99.90
12568;DHT22;6349;50.904;6.136;2023-01-15T06:23:31;6.50;99.90
12568;DHT22;6349;50.904;6.136;2023-01-15T06:25:36;6.50;99.90
12568;DHT22;6349;50.904;6.136;2023-01-15T06:27:39;6.50;99.90
12568;DHT22;6349;50.904;6.136;2023-01-15T06:29:40;6.50;99.90
12568;DHT22;6349;50.904;6.136;2023-01-15T06:31:40;6.40;99.90
12568;DHT22;6349;50.904;6.136;2023-01-15T06:33:41;6.50;99.90
12568;DHT22;6349;50.904;6.136;2023-01-15T06:35:42;6.50;99.90
12568;DHT22;6349;50.904;6.136;2023-01-15T06:37:42;6.50;99.90
12568;DHT22;6349;50.904;6.136;2023-01-15T06:39:43;6.50;99.90
12568;DHT22;6349;50.904;6.136;2023-01-15T06:41:47;6.50;99.90
12568;DHT22;6349;50.904;6.136;2023-01-15T06:44:12;6.50;99.90
12568;DHT22;6349;50.904;6.136;2023-01-15T06:46:32;6.50;99.90
12568;DHT22;6349;50.904;6.136;2023-01-15T06:48:53;6.50;99.90
12568;DHT22;6349;50.904;6.136;2023-01-15T06:50:54;6.50;99.90
12568;DHT22;6349;50.904;6.136;2023-01-15T06:52:55;6.60;99.90
12568;DHT22;6349;50.904;6.136;2023-01-15T06:54:56;6.50;99.90
12568;DHT22;6349;50.904;6.136;2023-01-15T06:56:56;6.50;99.90
12568;DHT22;6349;50.904;6.136;2023-01-15T06:58:57;6.50;99.90
12568;DHT22;6349;50.904;6.136;2023-01-15T07:00:58;6.40;99.90
12568;DHT22;6349;50.904;6.136;2023-01-15T07:02:59;6.50;99.90
12568;DHT22;6349;50.904;6.136;2023-01-15T07:05:00;6.50;99.90
12568;DHT22;6349;50.904;6.136;2023-01-15T07:07:01;6.50;99.90
12568;DHT22;6349;50.904;6.136;2023-01-15T07:09:02;6.50;99.90
12568;DHT22;6349;50.904;6.136;2023-01-15T07:11:05;6.50;99.90
12568;DHT22;6349;50.904;6.136;2023-01-15T07:13:08;6.50;99.90
12568;DHT22;6349;50.904;6.136;2023-01-15T07:15:10;6.40;99.90
12568;DHT22;6349;50.904;6.136;2023-01-15T07:17:10;6.40;99.90
12568;DHT22;6349;50.904;6.136;2023-01-15T07:19:11;6.50;99.90
12568;DHT22;6349;50.904;6.136;2023-01-15T07:21:12;6.40;99.90
12568;DHT22;6349;50.904;6.136;2023-01-15T07:23:13;6.40;99.90
12568;DHT22;6349;50.904;6.136;2023-01-15T07:25:13;6.40;99.90
12568;DHT22;6349;50.904;6.136;2023-01-15T07:27:14;6.30;99.90
12568;DHT22;6349;50.904;6.136;2023-01-15T07:29:15;6.40;99.90
12568;DHT22;6349;50.904;6.136;2023-01-15T07:31:15;6.30;99.90
12568;DHT22;6349;50.904;6.136;2023-01-15T07:33:16;6.30;99.90
12568;DHT22;6349;50.904;6.136;2023-01-15T07:35:17;6.20;99.90
12568;DHT22;6349;50.904;6.136;2023-01-15T07:37:17;6.20;99.90
12568;DHT22;6349;50.904;6.136;2023-01-15T07:39:18;6.10;99.90
12568;DHT22;6349;50.904;6.136;2023-01-15T07:41:19;6.10;99.90
12568;DHT22;6349;50.904;6.136;2023-01-15T07:43:40;6.10;99.90
12568;DHT22;6349;50.904;6.136;2023-01-15T07:46:00;6.00;99.90
12568;DHT22;6349;50.904;6.136;2023-01-15T07:48:21;5.90;99.90
12568;DHT22;6349;50.904;6.136;2023-01-15T07:50:41;5.90;99.90
12568;DHT22;6349;50.904;6.136;2023-01-15T07:52:42;5.80;99.90
12568;DHT22;6349;50.904;6.136;2023-01-15T07:54:44;5.80;99.90
12568;DHT22;6349;50.904;6.136;2023-01-15T07:56:45;5.70;99.90
12568;DHT22;6349;50.904;6.136;2023-01-15T07:58:45;5.70;99.90
12568;DHT22;6349;50.904;6.136;2023-01-15T08:00:49;5.60;99.90
12568;DHT22;6349;50.904;6.136;2023-01-15T08:02:50;5.50;99.90
12568;DHT22;6349;50.904;6.136;2023-01-15T08:04:51;5.60;99.90
12568;DHT22;6349;50.904;6.136;2023-01-15T08:06:51;5.60;99.90
12568;DHT22;6349;50.904;6.136;2023-01-15T08:08:52;5.50;99.90
12568;DHT22;6349;50.904;6.136;2023-01-15T08:10:53;5.50;99.90
12568;DHT22;6349;50.904;6.136;2023-01-15T08:13:13;5.50;99.90
12568;DHT22;6349;50.904;6.136;2023-01-15T08:15:38;5.60;99.90
12568;DHT22;6349;50.904;6.136;2023-01-15T08:17:41;5.60;99.90
12568;DHT22;6349;50.904;6.136;2023-01-15T08:19:42;5.60;99.90
12568;DHT22;6349;50.904;6.136;2023-01-15T08:21:43;5.60;99.90
12568;DHT22;6349;50.904;6.136;2023-01-15T08:23:43;5.80;99.90
12568;DHT22;6349;50.904;6.136;2023-01-15T08:25:45;5.70;99.90
12568;DHT22;6349;50.904;6.136;2023-01-15T08:27:47;5.70;99.90
12568;DHT22;6349;50.904;6.136;2023-01-15T08:29:47;5.70;99.90
12568;DHT22;6349;50.904;6.136;2023-01-15T08:31:48;5.70;99.90
12568;DHT22;6349;50.904;6.136;2023-01-15T08:33:49;5.80;99.90
12568;DHT22;6349;50.904;6.136;2023-01-15T08:35:49;5.80;99.90
12568;DHT22;6349;50.904;6.136;2023-01-15T08:37:50;5.80;99.90
12568;DHT22;6349;50.904;6.136;2023-01-15T08:39:51;5.80;99.90
12568;DHT22;6349;50.904;6.136;2023-01-15T08:41:53;5.80;99.90
12568;DHT22;6349;50.904;6.136;2023-01-15T08:43:54;5.80;99.90
12568;DHT22;6349;50.904;6.136;2023-01-15T08:45:56;5.80;99.90
12568;DHT22;6349;50.904;6.136;2023-01-15T08:47:57;5.80;99.90
12568;DHT22;6349;50.904;6.136;2023-01-15T08:49:59;5.80;99.90
12568;DHT22;6349;50.904;6.136;2023-01-15T08:51:59;5.80;99.90
12568;DHT22;6349;50.904;6.136;2023-01-15T08:54:00;5.80;99.90
12568;DHT22;6349;50.904;6.136;2023-01-15T08:56:01;5.80;99.90
12568;DHT22;6349;50.904;6.136;2023-01-15T08:58:02;5.80;99.90
12568;DHT22;6349;50.904;6.136;2023-01-15T09:00:03;5.80;99.90
12568;DHT22;6349;50.904;6.136;2023-01-15T09:02:04;5.80;99.90
12568;DHT22;6349;50.904;6.136;2023-01-15T09:04:05;5.80;99.90
12568;DHT22;6349;50.904;6.136;2023-01-15T09:06:06;5.80;99.90
12568;DHT22;6349;50.904;6.136;2023-01-15T09:08:07;5.80;99.90
12568;DHT22;6349;50.904;6.136;2023-01-15T09:10:08;5.80;99.90
12568;DHT22;6349;50.904;6.136;2023-01-15T09:12:08;5.80;99.90
12568;DHT22;6349;50.904;6.136;2023-01-15T09:14:11;5.80;99.90
12568;DHT22;6349;50.904;6.136;2023-01-15T09:16:12;5.80;99.90
12568;DHT22;6349;50.904;6.136;2023-01-15T09:18:13;5.80;99.90
12568;DHT22;6349;50.904;6.136;2023-01-15T09:20:18;5.90;99.90
12568;DHT22;6349;50.904;6.136;2023-01-15T09:22:19;5.90;99.90
12568;DHT22;6349;50.904;6.136;2023-01-15T09:24:19;5.90;99.90
12568;DHT22;6349;50.904;6.136;2023-01-15T09:26:26;5.80;99.90
12568;DHT22;6349;50.904;6.136;2023-01-15T09:28:28;5.90;99.90
12568;DHT22;6349;50.904;6.136;2023-01-15T09:30:29;5.90;99.90
12568;DHT22;6349;50.904;6.136;2023-01-15T09:32:30;5.90;99.90
12568;DHT22;6349;50.904;6.136;2023-01-15T09:34:32;5.90;99.90
12568;DHT22;6349;50.904;6.136;2023-01-15T09:36:34;6.00;99.90
12568;DHT22;6349;50.904;6.136;2023-01-15T09:38:34;6.00;99.90
12568;DHT22;6349;50.904;6.136;2023-01-15T09:42:53;6.00;99.90
12568;DHT22;6349;50.904;6.136;2023-01-15T09:47:29;6.00;99.90
12568;DHT22;6349;50.904;6.136;2023-01-15T09:49:46;6.10;99.90
12568;DHT22;6349;50.904;6.136;2023-01-15T09:54:39;6.10;99.90
12568;DHT22;6349;50.904;6.136;2023-01-15T09:56:41;6.10;99.90
12568;DHT22;6349;50.904;6.136;2023-01-15T09:58:42;6.10;99.90
12568;DHT22;6349;50.904;6.136;2023-01-15T10:00:46;6.20;99.90
12568;DHT22;6349;50.904;6.136;2023-01-15T10:02:58;6.20;99.90
12568;DHT22;6349;50.904;6.136;2023-01-15T10:05:10;6.30;99.90
12568;DHT22;6349;50.904;6.136;2023-01-15T10:09:40;6.30;99.90
12568;DHT22;6349;50.904;6.136;2023-01-15T10:11:58;6.30;99.90
12568;DHT22;6349;50.904;6.136;2023-01-15T10:14:33;6.30;99.90
12568;DHT22;6349;50.904;6.136;2023-01-15T10:16:38;6.30;99.90
12568;DHT22;6349;50.904;6.136;2023-01-15T10:18:39;6.40;99.90
12568;DHT22;6349;50.904;6.136;2023-01-15T10:21:04;6.30;99.90
12568;DHT22;6349;50.904;6.136;2023-01-15T10:25:26;6.30;99.90
12568;DHT22;6349;50.904;6.136;2023-01-15T10:27:30;6.40;99.90
12568;DHT22;6349;50.904;6.136;2023-01-15T10:29:53;6.40;99.90
12568;DHT22;6349;50.904;6.136;2023-01-15T10:32:08;6.50;99.90
12568;DHT22;6349;50.904;6.136;2023-01-15T10:37:14;6.50;99.90
12568;DHT22;6349;50.904;6.136;2023-01-15T10:46:55;6.60;99.90
12568;DHT22;6349;50.904;6.136;2023-01-15T10:49:02;6.60;99.90
12568;DHT22;6349;50.904;6.136;2023-01-15T10:51:13;6.50;99.90
12568;DHT22;6349;50.904;6.136;2023-01-15T10:53:28;6.50;99.90
12568;DHT22;6349;50.904;6.136;2023-01-15T10:55:36;6.60;99.90
12568;DHT22;6349;50.904;6.136;2023-01-15T10:57:52;6.60;99.90
12568;DHT22;6349;50.904;6.136;2023-01-15T10:59:57;6.60;99.90
12568;DHT22;6349;50.904;6.136;2023-01-15T11:01:59;6.50;99.90
12568;DHT22;6349;50.904;6.136;2023-01-15T11:04:02;6.60;99.90
12568;DHT22;6349;50.904;6.136;2023-01-15T11:06:06;6.60;99.90
12568;DHT22;6349;50.904;6.136;2023-01-15T11:08:26;6.50;99.90
12568;DHT22;6349;50.904;6.136;2023-01-15T11:10:30;6.60;99.90
12568;DHT22;6349;50.904;6.136;2023-01-15T11:12:31;6.60;99.90
12568;DHT22;6349;50.904;6.136;2023-01-15T11:14:51;6.60;99.90
12568;DHT22;6349;50.904;6.136;2023-01-15T11:17:13;6.50;99.90
12568;DHT22;6349;50.904;6.136;2023-01-15T11:19:37;6.50;99.90
12568;DHT22;6349;50.904;6.136;2023-01-15T11:21:42;6.50;99.90
12568;DHT22;6349;50.904;6.136;2023-01-15T11:23:45;6.50;99.90
12568;DHT22;6349;50.904;6.136;2023-01-15T11:25:52;6.50;99.90
12568;DHT22;6349;50.904;6.136;2023-01-15T11:27:53;6.40;99.90
12568;DHT22;6349;50.904;6.136;2023-01-15T11:29:57;6.40;99.90
12568;DHT22;6349;50.904;6.136;2023-01-15T11:31:58;6.50;99.90
12568;DHT22;6349;50.904;6.136;2023-01-15T11:34:02;6.40;99.90
12568;DHT22;6349;50.904;6.136;2023-01-15T11:36:06;6.40;99.90
12568;DHT22;6349;50.904;6.136;2023-01-15T11:38:16;6.40;99.90
12568;DHT22;6349;50.904;6.136;2023-01-15T11:40:20;6.40;99.90
12568;DHT22;6349;50.904;6.136;2023-01-15T11:42:23;6.40;99.90
12568;DHT22;6349;50.904;6.136;2023-01-15T11:44:54;6.40;99.90
12568;DHT22;6349;50.904;6.136;2023-01-15T11:47:17;6.50;99.90
12568;DHT22;6349;50.904;6.136;2023-01-15T11:49:38;6.50;99.90
12568;DHT22;6349;50.904;6.136;2023-01-15T11:52:00;6.40;99.90
12568;DHT22;6349;50.904;6.136;2023-01-15T11:54:03;6.40;99.90
12568;DHT22;6349;50.904;6.136;2023-01-15T11:56:09;6.50;99.90
12568;DHT22;6349;50.904;6.136;2023-01-15T11:58:11;6.50;99.90
12568;DHT22;6349;50.904;6.136;2023-01-15T12:00:22;6.50;99.90
12568;DHT22;6349;50.904;6.136;2023-01-15T12:02:34;6.50;99.90
12568;DHT22;6349;50.904;6.136;2023-01-15T12:04:49;6.50;99.90
12568;DHT22;6349;50.904;6.136;2023-01-15T12:06:53;6.60;99.90
12568;DHT22;6349;50.904;6.136;2023-01-15T12:12:06;6.60;99.90
12568;DHT22;6349;50.904;6.136;2023-01-15T12:17:01;6.70;99.90
12568;DHT22;6349;50.904;6.136;2023-01-15T12:22:01;6.80;99.90
12568;DHT22;6349;50.904;6.136;2023-01-15T12:29:23;6.90;99.90
12568;DHT22;6349;50.904;6.136;2023-01-15T12:31:34;6.90;99.90
12568;DHT22;6349;50.904;6.136;2023-01-15T12:33:58;6.90;99.90
12568;DHT22;6349;50.904;6.136;2023-01-15T12:36:10;6.90;99.90
12568;DHT22;6349;50.904;6.136;2023-01-15T12:38:21;6.80;99.90
12568;DHT22;6349;50.904;6.136;2023-01-15T12:41:05;6.90;99.90
12568;DHT22;6349;50.904;6.136;2023-01-15T12:43:31;6.80;99.90
12568;DHT22;6349;50.904;6.136;2023-01-15T12:45:53;6.90;99.90
12568;DHT22;6349;50.904;6.136;2023-01-15T12:48:21;6.80;99.90
12568;DHT22;6349;50.904;6.136;2023-01-15T12:51:02;6.80;99.90
12568;DHT22;6349;50.904;6.136;2023-01-15T12:53:00;6.80;99.90
12568;DHT22;6349;50.904;6.136;2023-01-15T12:55:12;6.80;99.90
12568;DHT22;6349;50.904;6.136;2023-01-15T12:57:21;6.80;99.90
12568;DHT22;6349;50.904;6.136;2023-01-15T12:59:33;6.80;99.90
12568;DHT22;6349;50.904;6.136;2023-01-15T13:01:57;6.90;99.90
12568;DHT22;6349;50.904;6.136;2023-01-15T13:06:49;7.10;99.90
12568;DHT22;6349;50.904;6.136;2023-01-15T13:09:02;7.10;99.90
12568;DHT22;6349;50.904;6.136;2023-01-15T13:11:05;7.10;99.90
12568;DHT22;6349;50.904;6.136;2023-01-15T13:15:31;7.20;99.90
12568;DHT22;6349;50.904;6.136;2023-01-15T13:18:03;7.20;99.90
12568;DHT22;6349;50.904;6.136;2023-01-15T13:20:32;7.30;99.90
12568;DHT22;6349;50.904;6.136;2023-01-15T13:23:01;7.10;99.90
12568;DHT22;6349;50.904;6.136;2023-01-15T13:25:58;7.10;99.90
12568;DHT22;6349;50.904;6.136;2023-01-15T13:27:47;7.10;99.90
12568;DHT22;6349;50.904;6.136;2023-01-15T13:30:18;7.00;99.90
12568;DHT22;6349;50.904;6.136;2023-01-15T13:32:25;7.00;99.90
12568;DHT22;6349;50.904;6.136;2023-01-15T13:35:05;7.00;99.90
12568;DHT22;6349;50.904;6.136;2023-01-15T13:36:52;7.00;99.90
12568;DHT22;6349;50.904;6.136;2023-01-15T13:39:00;7.00;99.90
12568;DHT22;6349;50.904;6.136;2023-01-15T13:41:05;6.90;99.90
12568;DHT22;6349;50.904;6.136;2023-01-15T13:43:07;6.90;99.90
12568;DHT22;6349;50.904;6.136;2023-01-15T13:47:36;6.90;99.90
12568;DHT22;6349;50.904;6.136;2023-01-15T13:49:41;6.90;99.90
12568;DHT22;6349;50.904;6.136;2023-01-15T13:51:48;6.90;99.90
12568;DHT22;6349;50.904;6.136;2023-01-15T13:53:49;6.90;99.90
12568;DHT22;6349;50.904;6.136;2023-01-15T13:55:55;6.90;99.90
12568;DHT22;6349;50.904;6.136;2023-01-15T13:57:56;6.90;99.90
12568;DHT22;6349;50.904;6.136;2023-01-15T13:59:57;6.90;99.90
12568;DHT22;6349;50.904;6.136;2023-01-15T14:01:57;6.90;99.90
12568;DHT22;6349;50.904;6.136;2023-01-15T14:06:13;6.90;99.90
12568;DHT22;6349;50.904;6.136;2023-01-15T14:08:15;6.90;99.90
12568;DHT22;6349;50.904;6.136;2023-01-15T14:10:23;6.80;99.90
12568;DHT22;6349;50.904;6.136;2023-01-15T14:19:41;6.80;99.90
12568;DHT22;6349;50.904;6.136;2023-01-15T14:24:31;6.80;99.90
12568;DHT22;6349;50.904;6.136;2023-01-15T14:34:28;6.80;99.90
12568;DHT22;6349;50.904;6.136;2023-01-15T14:36:27;6.80;99.90
12568;DHT22;6349;50.904;6.136;2023-01-15T14:38:28;6.80;99.90
12568;DHT22;6349;50.904;6.136;2023-01-15T14:40:32;6.80;99.90
12568;DHT22;6349;50.904;6.136;2023-01-15T14:42:38;6.80;99.90
12568;DHT22;6349;50.904;6.136;2023-01-15T14:45:04;6.80;99.90
12568;DHT22;6349;50.904;6.136;2023-01-15T14:47:18;6.70;99.90
12568;DHT22;6349;50.904;6.136;2023-01-15T14:49:44;6.70;99.90
12568;DHT22;6349;50.904;6.136;2023-01-15T14:51:50;6.70;99.90